Time;durP1;ratioP1;P1;durP2;ratioP2;P2;SDS_P1;SDS_P2;PMS_P1;PMS_P2;Temp;Humidity;BMP_temperature;BMP_pressure;BME280_temperature;BME280_humidity;BME280_pressure;Samples;Min_cycle;Max_cycle;Signal;HPM_P1;HPM_P2
2021/08/05 00:02:23;;;;;;;4.40;4.10;;;20.80;99.90;;;;;;6274291;28;20235;-60
2021/08/05 00:05:28;;;;;;;5.43;4.40;;;20.80;99.90;;;;;;6272202;28;20532;-60
2021/08/05 00:08:31;;;;;;;4.47;4.07;;;20.80;99.90;;;;;;6274105;28;20308;-61
2021/08/05 00:11:36;;;;;;;3.67;3.40;;;20.70;99.90;;;;;;6273675;28;20665;-61
2021/08/05 00:14:40;;;;;;;4.03;3.73;;;20.80;99.90;;;;;;6273317;28;20254;-60
2021/08/05 00:17:43;;;;;;;4.13;3.83;;;20.80;99.90;;;;;;6273498;28;20245;-61
2021/08/05 00:20:48;;;;;;;4.73;4.43;;;20.80;99.90;;;;;;6271146;28;20235;-60
2021/08/05 00:23:51;;;;;;;5.10;4.60;;;20.80;99.90;;;;;;6270608;28;20305;-60
2021/08/05 00:26:55;;;;;;;5.43;4.93;;;20.80;99.90;;;;;;6271816;28;20746;-61
2021/08/05 00:29:58;;;;;;;5.67;5.00;;;20.80;99.90;;;;;;6271976;28;20621;-61
2021/08/05 00:33:01;;;;;;;5.60;5.10;;;20.80;99.90;;;;;;6271412;28;20575;-61
2021/08/05 00:36:06;;;;;;;5.87;5.37;;;20.80;99.90;;;;;;6272503;28;20689;-59
2021/08/05 00:39:09;;;;;;;6.10;5.60;;;20.80;99.90;;;;;;6272560;28;20235;-59
2021/08/05 00:42:12;;;;;;;6.33;5.73;;;20.80;99.90;;;;;;6274683;28;20285;-59
2021/08/05 00:45:16;;;;;;;7.40;6.13;;;20.80;99.90;;;;;;6275108;28;20242;-59
2021/08/05 00:48:19;;;;;;;6.13;5.73;;;20.70;99.90;;;;;;6275245;28;20285;-60
2021/08/05 00:51:24;;;;;;;5.67;5.17;;;20.60;99.90;;;;;;6274737;28;20704;-60
2021/08/05 00:54:28;;;;;;;6.07;5.53;;;20.60;99.90;;;;;;6265552;28;20245;-60
2021/08/05 00:57:31;;;;;;;6.53;6.03;;;20.70;99.90;;;;;;6274708;28;20235;-63
2021/08/05 01:00:35;;;;;;;7.67;6.37;;;20.60;99.90;;;;;;6274063;28;20254;-60
2021/08/05 01:03:43;;;;;;;7.10;5.97;;;20.60;99.90;;;;;;6274363;28;20231;-60
2021/08/05 01:06:57;;;;;;;8.07;6.20;;;20.60;99.90;;;;;;6274527;28;20232;-60
2021/08/05 01:10:07;;;;;;;7.60;6.07;;;20.50;99.90;;;;;;6274178;28;20704;-61
2021/08/05 01:13:18;;;;;;;6.73;6.03;;;20.40;99.90;;;;;;6274216;28;20235;-60
2021/08/05 01:16:24;;;;;;;7.37;6.67;;;20.30;99.90;;;;;;6274062;28;20216;-61
2021/08/05 01:19:35;;;;;;;5.37;4.87;;;20.40;99.90;;;;;;6274239;28;20239;-60
2021/08/05 01:22:48;;;;;;;6.30;5.80;;;20.30;99.90;;;;;;6273974;28;20228;-60
2021/08/05 01:25:58;;;;;;;6.03;5.43;;;20.40;99.90;;;;;;6274209;28;20707;-60
2021/08/05 01:29:03;;;;;;;6.23;5.73;;;20.40;99.90;;;;;;6273821;28;20244;-60
2021/08/05 01:32:08;;;;;;;6.53;5.80;;;20.30;99.90;;;;;;6274115;28;20223;-60
2021/08/05 01:35:12;;;;;;;6.93;4.93;;;20.30;99.90;;;;;;6274008;28;20246;-60
2021/08/05 01:38:18;;;;;;;6.40;5.70;;;20.10;99.90;;;;;;6274072;28;20223;-60
2021/08/05 01:41:23;;;;;;;5.83;5.20;;;20.00;99.90;;;;;;6273819;28;20238;-60
2021/08/05 01:44:29;;;;;;;5.07;4.20;;;20.00;99.90;;;;;;6274038;28;20242;-60
2021/08/05 01:47:32;;;;;;;5.17;4.77;;;20.00;99.90;;;;;;6273885;28;20223;-60
2021/08/05 01:50:35;;;;;;;5.40;5.00;;;20.00;99.90;;;;;;6273410;28;20602;-61
2021/08/05 01:53:40;;;;;;;5.70;5.20;;;20.00;99.90;;;;;;6273597;28;20693;-60
2021/08/05 01:56:43;;;;;;;6.13;5.53;;;20.00;99.90;;;;;;6273447;28;20247;-60
2021/08/05 01:59:48;;;;;;;5.50;5.00;;;19.90;99.90;;;;;;6273503;28;20227;-60
2021/08/05 02:02:53;;;;;;;5.90;5.37;;;19.90;99.90;;;;;;6273586;28;20242;-61
2021/08/05 02:06:05;;;;;;;5.43;4.80;;;19.80;99.90;;;;;;6273952;28;20223;-60
2021/08/05 02:09:15;;;;;;;5.37;4.87;;;19.80;99.90;;;;;;6273590;28;20235;-60
2021/08/05 02:12:19;;;;;;;6.17;5.67;;;19.80;99.90;;;;;;6278264;28;20573;-61
2021/08/05 02:15:24;;;;;;;5.53;5.10;;;19.70;99.90;;;;;;6278065;28;20231;-60
2021/08/05 02:18:30;;;;;;;5.40;5.00;;;19.80;99.90;;;;;;6278673;28;20231;-60
2021/08/05 02:21:35;;;;;;;5.67;5.17;;;19.80;99.90;;;;;;6277595;28;20247;-61
2021/08/05 02:24:38;;;;;;;5.97;5.47;;;19.90;99.90;;;;;;6278323;28;20235;-60
2021/08/05 02:27:43;;;;;;;6.30;5.70;;;19.90;99.90;;;;;;6277958;28;20696;-60
2021/08/05 02:30:50;;;;;;;7.10;6.00;;;20.00;99.90;;;;;;6278322;28;20750;-60
2021/08/05 02:33:53;;;;;;;6.20;5.60;;;20.00;99.90;;;;;;6277967;28;20243;-60
2021/08/05 02:36:56;;;;;;;6.50;5.63;;;20.00;99.90;;;;;;6278371;28;20231;-61
2021/08/05 02:40:00;;;;;;;6.47;5.87;;;20.00;99.90;;;;;;6277641;28;20227;-61
2021/08/05 02:43:04;;;;;;;6.60;6.10;;;20.00;99.90;;;;;;6277910;28;20637;-61
2021/08/05 02:46:09;;;;;;;6.40;5.80;;;19.90;99.90;;;;;;6277886;28;20218;-60
2021/08/05 02:49:14;;;;;;;6.70;5.97;;;19.90;99.90;;;;;;6278001;28;20294;-60
2021/08/05 02:52:18;;;;;;;6.53;6.03;;;19.90;99.90;;;;;;6278235;28;20226;-59
2021/08/05 02:55:21;;;;;;;5.77;5.33;;;19.90;99.90;;;;;;6277280;28;20246;-60
2021/08/05 02:58:25;;;;;;;5.60;5.10;;;19.80;99.90;;;;;;6277939;28;20239;-59
2021/08/05 03:01:29;;;;;;;6.40;5.80;;;19.80;99.90;;;;;;6272699;28;20578;-59
2021/08/05 03:04:34;;;;;;;5.07;4.63;;;19.70;99.90;;;;;;6277864;28;20238;-60
2021/08/05 03:07:37;;;;;;;5.80;5.23;;;19.70;99.90;;;;;;6277094;28;20227;-59
2021/08/05 03:10:40;;;;;;;5.40;4.90;;;19.60;99.90;;;;;;6277568;28;20234;-59
2021/08/05 03:13:43;;;;;;;5.23;4.70;;;19.60;99.90;;;;;;6276858;28;20288;-60
2021/08/05 03:16:48;;;;;;;5.20;4.70;;;19.60;99.90;;;;;;6277437;28;20289;-60
2021/08/05 03:19:51;;;;;;;5.57;5.03;;;19.60;99.90;;;;;;6277231;28;20251;-59
2021/08/05 03:22:57;;;;;;;5.63;5.13;;;19.60;99.90;;;;;;6276353;28;20238;-59
2021/08/05 03:26:00;;;;;;;6.07;5.47;;;19.60;99.90;;;;;;6276588;28;20681;-59
2021/08/05 03:29:03;;;;;;;5.10;4.70;;;19.50;99.90;;;;;;6276894;28;20615;-59
2021/08/05 03:32:08;;;;;;;5.23;4.70;;;19.50;99.90;;;;;;6276755;28;20676;-60
2021/08/05 03:35:11;;;;;;;4.90;4.50;;;19.50;99.90;;;;;;6276834;28;20318;-60
2021/08/05 03:38:15;;;;;;;4.43;4.00;;;19.50;99.90;;;;;;6276972;28;20246;-60
2021/08/05 03:41:18;;;;;;;5.03;4.57;;;19.50;99.90;;;;;;6276276;28;20243;-60
2021/08/05 03:44:21;;;;;;;5.73;5.00;;;19.50;99.90;;;;;;6276681;28;20227;-61
2021/08/05 03:47:25;;;;;;;7.23;4.40;;;19.40;99.90;;;;;;6276227;28;20231;-60
2021/08/05 03:50:29;;;;;;;5.97;5.47;;;19.40;99.90;;;;;;6276493;28;20234;-60
2021/08/05 03:53:32;;;;;;;7.93;5.53;;;19.40;99.90;;;;;;6275917;28;20231;-60
2021/08/05 03:56:35;;;;;;;6.27;5.77;;;19.40;99.90;;;;;;6276500;28;20231;-60
2021/08/05 03:59:38;;;;;;;7.23;6.60;;;19.30;99.90;;;;;;6275970;28;20612;-61
2021/08/05 04:02:43;;;;;;;7.53;6.93;;;19.20;99.90;;;;;;6276033;28;20701;-60
2021/08/05 04:05:47;;;;;;;8.20;7.53;;;19.10;99.90;;;;;;6266641;28;20235;-61
2021/08/05 04:08:50;;;;;;;7.40;6.90;;;19.10;99.90;;;;;;6276027;28;20232;-60
2021/08/05 04:11:53;;;;;;;8.43;7.73;;;19.10;99.90;;;;;;6276127;28;20310;-60
2021/08/05 04:14:57;;;;;;;7.20;6.60;;;19.00;99.90;;;;;;6275745;28;20493;-60
2021/08/05 04:18:01;;;;;;;7.83;6.43;;;19.10;99.90;;;;;;6275737;28;20584;-60
2021/08/05 04:21:05;;;;;;;8.10;7.50;;;19.10;99.90;;;;;;6275561;28;20478;-60
2021/08/05 04:24:08;;;;;;;9.93;8.07;;;19.20;99.90;;;;;;6275476;28;20242;-60
2021/08/05 04:27:11;;;;;;;6.73;6.20;;;19.30;99.90;;;;;;6275501;28;20703;-60
2021/08/05 04:30:15;;;;;;;7.77;7.07;;;19.30;99.90;;;;;;6275505;28;20227;-60
2021/08/05 04:33:19;;;;;;;6.90;6.33;;;19.30;99.90;;;;;;6275322;28;20228;-60
2021/08/05 04:36:22;;;;;;;7.53;6.73;;;19.30;99.90;;;;;;6275087;28;20712;-60
2021/08/05 04:39:25;;;;;;;7.60;6.77;;;19.20;99.90;;;;;;6274863;28;20477;-60
2021/08/05 04:42:29;;;;;;;7.57;6.97;;;19.10;99.90;;;;;;6275179;28;20478;-60
2021/08/05 04:45:32;;;;;;;7.27;6.67;;;19.20;99.90;;;;;;6274671;28;20473;-60
2021/08/05 04:48:36;;;;;;;6.83;5.97;;;19.10;99.90;;;;;;6275093;28;20485;-60
2021/08/05 04:51:39;;;;;;;6.27;5.77;;;19.10;99.90;;;;;;6274594;28;20488;-60
2021/08/05 04:54:42;;;;;;;6.37;5.87;;;19.10;99.90;;;;;;6274793;28;20822;-60
2021/08/05 04:57:49;;;;;;;5.40;5.03;;;19.00;99.90;;;;;;6274721;28;20559;-60
2021/08/05 05:00:53;;;;;;;5.87;5.30;;;19.00;99.90;;;;;;6274664;28;20809;-60
2021/08/05 05:03:57;;;;;;;5.63;5.20;;;19.10;99.90;;;;;;6274480;28;20515;-60
2021/08/05 05:07:01;;;;;;;5.60;5.10;;;19.00;99.90;;;;;;6274274;28;20293;-60
2021/08/05 05:10:04;;;;;;;6.67;6.07;;;18.90;99.90;;;;;;6270355;28;20242;-60
2021/08/05 05:13:08;;;;;;;7.33;5.43;;;18.90;99.90;;;;;;6274251;28;20464;-60
2021/08/05 05:16:11;;;;;;;5.03;4.60;;;19.00;99.90;;;;;;6274636;28;20445;-59
2021/08/05 05:19:15;;;;;;;5.70;5.17;;;19.10;99.90;;;;;;6274266;28;20465;-61
2021/08/05 05:22:19;;;;;;;5.60;5.10;;;19.10;99.90;;;;;;6274813;28;20274;-60
2021/08/05 05:25:22;;;;;;;5.07;4.73;;;19.20;99.90;;;;;;6274145;28;20469;-60
2021/08/05 05:28:26;;;;;;;5.47;5.03;;;19.20;99.90;;;;;;6274527;28;20235;-60
2021/08/05 05:31:30;;;;;;;6.00;5.40;;;19.20;99.90;;;;;;6273921;28;20234;-60
2021/08/05 05:34:34;;;;;;;6.07;5.50;;;19.20;99.90;;;;;;6274793;28;20265;-60
2021/08/05 05:37:38;;;;;;;5.30;4.90;;;19.20;99.90;;;;;;6273986;28;20228;-60
2021/08/05 05:40:42;;;;;;;6.63;6.03;;;19.20;99.90;;;;;;6274509;28;20242;-60
2021/08/05 05:43:45;;;;;;;6.77;6.07;;;19.40;99.90;;;;;;6274210;28;20227;-60
2021/08/05 05:46:48;;;;;;;6.53;6.03;;;19.50;99.90;;;;;;6277768;28;20223;-60
2021/08/05 05:49:54;;;;;;;7.10;6.47;;;19.50;99.90;;;;;;6279331;28;20226;-61
2021/08/05 05:52:58;;;;;;;6.10;5.60;;;19.60;99.90;;;;;;6278852;28;20310;-60
2021/08/05 05:56:01;;;;;;;5.80;5.30;;;19.70;99.90;;;;;;6279282;28;20238;-61
2021/08/05 05:59:04;;;;;;;6.40;5.90;;;19.70;99.90;;;;;;6278976;28;20227;-60
2021/08/05 06:02:07;;;;;;;5.70;5.20;;;19.80;99.90;;;;;;6279007;28;20242;-60
2021/08/05 06:05:13;;;;;;;5.33;4.83;;;19.90;99.90;;;;;;6278418;28;20254;-61
2021/08/05 06:08:16;;;;;;;5.40;4.90;;;20.10;99.90;;;;;;6278714;28;20242;-60
2021/08/05 06:11:19;;;;;;;5.03;4.53;;;20.20;99.90;;;;;;6278288;28;20692;-60
2021/08/05 06:14:22;;;;;;;5.40;4.90;;;20.40;99.90;;;;;;6264714;28;20243;-60
2021/08/05 06:17:26;;;;;;;4.90;4.50;;;20.50;99.90;;;;;;6278323;28;20254;-60
2021/08/05 06:20:30;;;;;;;5.50;4.93;;;20.60;99.90;;;;;;6278614;28;20227;-61
2021/08/05 06:23:33;;;;;;;4.47;4.07;;;20.70;99.90;;;;;;6277947;28;20232;-60
2021/08/05 06:26:37;;;;;;;4.70;4.30;;;20.90;99.90;;;;;;6278470;28;20277;-61
2021/08/05 06:29:40;;;;;;;4.90;4.53;;;20.90;99.90;;;;;;6278826;28;20250;-60
2021/08/05 06:32:44;;;;;;;4.93;4.43;;;21.20;99.90;;;;;;6278124;28;20731;-60
2021/08/05 06:35:48;;;;;;;5.00;4.60;;;21.50;99.90;;;;;;6278050;28;20239;-60
2021/08/05 06:38:51;;;;;;;5.17;4.67;;;21.70;99.90;;;;;;6277656;28;20227;-60
2021/08/05 06:41:54;;;;;;;3.97;3.67;;;21.90;99.90;;;;;;6277958;28;20231;-60
2021/08/05 06:44:58;;;;;;;4.60;4.20;;;22.00;99.90;;;;;;6277471;28;20649;-60
2021/08/05 06:48:01;;;;;;;4.57;4.17;;;22.10;99.90;;;;;;6277801;28;20242;-60
2021/08/05 06:51:07;;;;;;;4.43;3.83;;;22.30;99.90;;;;;;6277423;28;20606;-60
2021/08/05 06:54:11;;;;;;;4.27;3.97;;;22.40;99.90;;;;;;6277843;28;20235;-60
2021/08/05 06:57:17;;;;;;;4.23;3.87;;;22.50;99.90;;;;;;6277536;28;20281;-59
2021/08/05 07:00:20;;;;;;;4.80;3.50;;;22.40;99.90;;;;;;6277546;28;20567;-60
2021/08/05 07:03:23;;;;;;;4.43;4.03;;;22.20;99.90;;;;;;6277213;28;20231;-59
2021/08/05 07:06:28;;;;;;;4.47;4.00;;;21.90;99.90;;;;;;6277425;28;20250;-60
2021/08/05 07:09:31;;;;;;;4.30;3.93;;;21.90;99.90;;;;;;6276995;28;20609;-60
2021/08/05 07:12:34;;;;;;;4.30;3.90;;;22.10;99.90;;;;;;6277642;28;20665;-59
2021/08/05 07:15:38;;;;;;;4.27;3.97;;;22.30;99.90;;;;;;6277088;28;20322;-60
2021/08/05 07:18:41;;;;;;;3.70;3.40;;;22.60;99.90;;;;;;6267715;28;20242;-60
2021/08/05 07:21:47;;;;;;;5.10;4.47;;;22.60;99.90;;;;;;6277072;28;20223;-60
2021/08/05 07:24:50;;;;;;;4.90;4.50;;;22.60;99.90;;;;;;6276527;28;20236;-60
2021/08/05 07:27:53;;;;;;;4.20;3.90;;;22.50;99.90;;;;;;6276920;28;20235;-60
2021/08/05 07:30:57;;;;;;;6.43;4.33;;;22.50;99.90;;;;;;6276540;28;20227;-60
2021/08/05 07:34:00;;;;;;;4.37;4.07;;;22.50;99.90;;;;;;6277078;28;20232;-60
2021/08/05 07:37:05;;;;;;;6.37;4.00;;;22.60;99.90;;;;;;6276253;28;20231;-60
2021/08/05 07:40:10;;;;;;;4.00;3.70;;;22.50;99.90;;;;;;6276797;28;20224;-60
2021/08/05 07:43:13;;;;;;;4.27;3.87;;;22.50;99.90;;;;;;6276151;28;20231;-59
2021/08/05 07:46:16;;;;;;;4.83;4.43;;;22.50;99.90;;;;;;6276778;28;20216;-60
2021/08/05 07:49:20;;;;;;;4.80;4.33;;;22.40;99.90;;;;;;6275999;28;20665;-60
2021/08/05 07:52:24;;;;;;;4.23;3.87;;;22.40;99.90;;;;;;6276353;28;20214;-60
2021/08/05 07:55:27;;;;;;;12.20;4.80;;;22.50;99.90;;;;;;6276060;28;20231;-61
2021/08/05 07:58:31;;;;;;;3.87;3.57;;;22.60;99.90;;;;;;6275883;28;20242;-60
2021/08/05 08:01:34;;;;;;;4.70;3.13;;;22.50;99.90;;;;;;6276510;28;20220;-60
2021/08/05 08:04:37;;;;;;;3.70;3.40;;;22.30;99.90;;;;;;6276082;28;20238;-60
2021/08/05 08:07:43;;;;;;;2.07;1.87;;;22.20;99.90;;;;;;6275510;28;20234;-60
2021/08/05 08:10:47;;;;;;;3.00;2.43;;;22.00;99.90;;;;;;6275838;28;20230;-60
2021/08/05 08:14:02;;;;;;;2.50;1.67;;;21.80;99.90;;;;;;6275919;28;20304;-61
2021/08/05 08:17:06;;;;;;;1.80;1.70;;;21.60;99.90;;;;;;6275694;28;20250;-61
2021/08/05 08:20:12;;;;;;;3.00;1.33;;;21.70;99.90;;;;;;6275958;28;20227;-60
2021/08/05 08:23:17;;;;;;;2.20;1.50;;;21.70;99.90;;;;;;6275276;28;20242;-60
2021/08/05 08:26:20;;;;;;;1.00;0.90;;;21.60;99.90;;;;;;6275908;28;20231;-60
2021/08/05 08:29:23;;;;;;;1.20;0.90;;;21.50;99.90;;;;;;6275575;28;20242;-63
2021/08/05 08:32:27;;;;;;;0.77;0.70;;;21.30;99.90;;;;;;6275674;28;20242;-63
2021/08/05 08:35:30;;;;;;;1.00;0.63;;;21.20;99.90;;;;;;6275478;28;20227;-63
2021/08/05 08:38:35;;;;;;;2.03;0.50;;;21.10;99.90;;;;;;6275696;28;20235;-63
2021/08/05 08:41:40;;;;;;;0.70;0.60;;;21.00;99.90;;;;;;6275437;28;20234;-63
2021/08/05 08:44:44;;;;;;;0.77;0.50;;;20.80;99.90;;;;;;6275386;28;20240;-63
2021/08/05 08:47:52;;;;;;;0.83;0.40;;;20.70;99.90;;;;;;6255798;28;20363;-67
2021/08/05 08:50:59;;;;;;;1.10;0.90;;;20.60;99.90;;;;;;6257302;28;20243;-64
2021/08/05 08:54:07;;;;;;;1.13;0.53;;;20.50;99.90;;;;;;6274791;28;20689;-64
2021/08/05 08:57:11;;;;;;;0.60;0.50;;;20.50;99.90;;;;;;6257878;28;20228;-64
2021/08/05 09:00:15;;;;;;;0.60;0.50;;;20.30;99.90;;;;;;6250055;28;20235;-65
2021/08/05 09:03:20;;;;;;;0.80;0.73;;;20.20;99.90;;;;;;6249863;28;20231;-64
2021/08/05 09:06:24;;;;;;;1.17;0.70;;;20.10;99.90;;;;;;6271865;28;20238;-64
2021/08/05 09:09:29;;;;;;;0.57;0.43;;;20.00;99.90;;;;;;6274422;28;20285;-63
2021/08/05 09:12:32;;;;;;;0.50;0.30;;;19.90;99.90;;;;;;6274487;28;20227;-63
2021/08/05 09:15:39;;;;;;;1.20;0.77;;;19.80;99.90;;;;;;6274178;28;20242;-60
2021/08/05 09:18:43;;;;;;;1.23;0.77;;;19.70;99.90;;;;;;6274194;28;20231;-63
2021/08/05 09:21:51;;;;;;;3.70;0.60;;;19.60;99.90;;;;;;6264777;28;20234;-60
2021/08/05 09:24:56;;;;;;;0.50;0.30;;;19.60;99.90;;;;;;6262477;28;20247;-65
2021/08/05 09:28:01;;;;;;;1.33;0.40;;;19.70;99.90;;;;;;6274168;28;20660;-68
2021/08/05 09:31:16;;;;;;;0.70;0.40;;;19.80;99.90;;;;;;6273902;28;20250;-65
2021/08/05 09:34:21;;;;;;;0.97;0.33;;;19.90;99.90;;;;;;6274211;28;20228;-65
2021/08/05 09:37:36;;;;;;;0.60;0.40;;;20.00;99.90;;;;;;6274488;28;20206;-61
2021/08/05 09:40:40;;;;;;;0.60;0.40;;;20.00;99.90;;;;;;6255086;28;20228;-66
2021/08/05 09:43:44;;;;;;;0.50;0.30;;;20.10;99.90;;;;;;6248688;28;20228;-61
2021/08/05 09:46:47;;;;;;;0.80;0.40;;;20.20;99.90;;;;;;6249320;28;20581;-67
2021/08/05 09:49:54;;;;;;;0.70;0.60;;;20.30;99.90;;;;;;6262937;28;20237;-59
2021/08/05 09:53:08;;;;;;;0.80;0.60;;;20.20;99.90;;;;;;6258259;28;20699;-60
2021/08/05 09:56:13;;;;;;;0.70;0.50;;;20.20;99.90;;;;;;6257462;28;20232;-61
2021/08/05 09:59:16;;;;;;;1.10;0.57;;;20.20;99.90;;;;;;6258622;28;20223;-61
2021/08/05 10:02:20;;;;;;;0.87;0.87;;;20.20;99.90;;;;;;6273594;28;20246;-62
2021/08/05 10:05:25;;;;;;;0.70;0.50;;;20.20;99.90;;;;;;6273584;28;20246;-60
2021/08/05 10:08:33;;;;;;;1.00;0.77;;;20.00;99.90;;;;;;6257790;28;20557;-61
2021/08/05 10:11:38;;;;;;;0.90;0.70;;;20.10;99.90;;;;;;6248953;28;20370;-61
2021/08/05 10:14:41;;;;;;;0.63;0.60;;;20.20;99.90;;;;;;6248409;28;20248;-60
2021/08/05 10:17:45;;;;;;;0.93;0.80;;;20.20;99.90;;;;;;6248890;28;20322;-61
2021/08/05 10:20:49;;;;;;;0.70;0.60;;;20.20;99.90;;;;;;6248587;28;20232;-61
2021/08/05 10:23:53;;;;;;;1.17;0.90;;;20.20;99.90;;;;;;6261809;28;20224;-61
2021/08/05 10:26:58;;;;;;;1.20;0.97;;;20.20;99.90;;;;;;6244476;28;20236;-61
2021/08/05 10:30:01;;;;;;;1.10;0.60;;;20.30;99.90;;;;;;6248435;28;20267;-61
2021/08/05 10:33:05;;;;;;;1.27;0.60;;;20.20;99.90;;;;;;6262374;28;20237;-61
2021/08/05 10:36:10;;;;;;;1.00;0.70;;;20.30;99.90;;;;;;6302129;28;20238;-61
2021/08/05 10:39:13;;;;;;;0.60;0.57;;;20.30;99.90;;;;;;6295393;28;20250;-61
2021/08/05 10:42:20;;;;;;;0.93;0.50;;;20.40;99.90;;;;;;6277720;28;20707;-61
2021/08/05 10:45:23;;;;;;;1.50;0.70;;;20.50;99.90;;;;;;6277838;28;20258;-61
2021/08/05 10:48:27;;;;;;;0.90;0.43;;;20.50;99.90;;;;;;6277548;28;20238;-60
2021/08/05 10:51:35;;;;;;;0.60;0.40;;;20.60;99.90;;;;;;6261786;28;20563;-61
2021/08/05 10:54:54;;;;;;;0.70;0.50;;;20.60;99.90;;;;;;6267239;28;20251;-62
2021/08/05 10:58:14;;;;;;;1.17;0.40;;;20.60;99.90;;;;;;6252629;28;20240;-62
2021/08/05 11:01:17;;;;;;;0.60;0.60;;;20.50;99.90;;;;;;6252226;28;20208;-62
2021/08/05 11:04:40;;;;;;;0.50;0.40;;;20.50;99.90;;;;;;6252450;28;20232;-61
2021/08/05 11:07:43;;;;;;;1.70;0.70;;;20.50;99.90;;;;;;6252443;28;20307;-62
2021/08/05 11:10:47;;;;;;;1.23;0.60;;;20.50;99.90;;;;;;6252267;28;20569;-61
2021/08/05 11:14:23;;;;;;;0.83;0.60;;;20.60;99.90;;;;;;6251886;28;20250;-61
2021/08/05 11:17:28;;;;;;;1.20;0.97;;;20.90;99.90;;;;;;6251137;28;20229;-62
2021/08/05 11:20:31;;;;;;;1.00;0.80;;;21.00;99.90;;;;;;6252249;28;20232;-60
2021/08/05 11:23:41;;;;;;;1.70;0.60;;;21.20;99.90;;;;;;6275593;28;20249;-61
2021/08/05 11:27:12;;;;;;;6.40;1.40;;;21.20;99.90;;;;;;6301944;28;20227;-61
2021/08/05 11:30:44;;;;;;;1.73;0.90;;;21.20;99.90;;;;;;6281404;28;20567;-62
2021/08/05 11:33:58;;;;;;;2.17;0.70;;;21.30;99.90;;;;;;6263053;28;20238;-61
2021/08/05 11:37:09;;;;;;;2.73;1.07;;;21.30;99.90;;;;;;6276425;28;20707;-61
2021/08/05 11:40:12;;;;;;;2.33;1.30;;;21.30;99.90;;;;;;6276394;28;20224;-67
2021/08/05 11:43:19;;;;;;;1.00;0.80;;;21.40;99.90;;;;;;6275521;28;20289;-62
2021/08/05 11:46:23;;;;;;;1.30;0.80;;;21.60;99.90;;;;;;6276660;28;20211;-62
2021/08/05 11:49:38;;;;;;;1.57;0.70;;;21.70;99.90;;;;;;6267196;28;20236;-65
2021/08/05 11:52:43;;;;;;;0.70;0.70;;;21.80;99.90;;;;;;6275890;28;20250;-63
2021/08/05 11:55:50;;;;;;;2.37;0.90;;;21.80;99.90;;;;;;6274701;28;20317;-65
2021/08/05 11:58:53;;;;;;;1.40;1.00;;;21.60;99.90;;;;;;6275979;28;20235;-63
2021/08/05 12:02:08;;;;;;;1.30;1.03;;;21.70;99.90;;;;;;6275553;28;20234;-66
2021/08/05 12:05:14;;;;;;;1.07;0.97;;;21.80;99.90;;;;;;6250775;28;20236;-67
2021/08/05 12:08:20;;;;;;;2.10;1.30;;;21.70;99.90;;;;;;6250844;28;20690;-65
2021/08/05 12:11:23;;;;;;;4.00;1.83;;;21.70;99.90;;;;;;6251295;28;20228;-64
2021/08/05 12:14:27;;;;;;;1.60;1.50;;;21.60;99.90;;;;;;6249724;28;20231;-69
2021/08/05 12:17:39;;;;;;;2.20;1.37;;;21.50;99.90;;;;;;6250862;28;20682;-65
2021/08/05 12:20:45;;;;;;;1.83;1.73;;;21.40;99.90;;;;;;6275077;28;20255;-61
2021/08/05 12:23:53;;;;;;;3.47;2.23;;;21.40;99.90;;;;;;6288771;28;20254;-61
2021/08/05 12:27:01;;;;;;;2.10;1.90;;;21.20;99.90;;;;;;6299983;28;20223;-62
2021/08/05 12:30:08;;;;;;;2.20;1.70;;;21.30;99.90;;;;;;6300224;28;20234;-63
2021/08/05 12:33:15;;;;;;;2.27;1.70;;;21.50;99.90;;;;;;6299636;28;20235;-61
2021/08/05 12:36:21;;;;;;;2.40;1.63;;;21.70;99.90;;;;;;6290264;28;20309;-65
2021/08/05 12:39:28;;;;;;;1.80;1.70;;;21.90;99.90;;;;;;6290277;28;20223;-61
2021/08/05 12:42:34;;;;;;;3.20;1.80;;;22.20;99.90;;;;;;6272979;28;20238;-63
2021/08/05 12:45:40;;;;;;;3.43;1.50;;;22.40;99.90;;;;;;6271026;28;20694;-68
2021/08/05 12:48:44;;;;;;;2.07;1.47;;;22.50;99.90;;;;;;6272874;28;20577;-63
2021/08/05 12:51:56;;;;;;;4.23;1.63;;;22.60;99.90;;;;;;6272385;28;20230;-62
2021/08/05 12:54:59;;;;;;;2.00;1.63;;;22.70;99.90;;;;;;6272864;28;20223;-62
2021/08/05 12:58:04;;;;;;;1.73;1.43;;;22.80;99.90;;;;;;6274392;28;20242;-65
2021/08/05 13:01:16;;;;;;;2.30;1.70;;;23.00;99.90;;;;;;6273779;28;20234;-62
2021/08/05 13:04:24;;;;;;;2.00;1.23;;;23.30;99.90;;;;;;6273146;28;20235;-63
2021/08/05 13:07:41;;;;;;;1.80;1.10;;;23.40;99.90;;;;;;6274143;28;20660;-62
2021/08/05 13:10:45;;;;;;;1.57;1.13;;;23.70;99.90;;;;;;6274534;28;20235;-64
2021/08/05 13:13:53;;;;;;;2.33;0.90;;;23.90;99.90;;;;;;6274479;28;20262;-61
2021/08/05 13:17:05;;;;;;;2.10;1.10;;;24.30;99.90;;;;;;6274332;28;20293;-61
2021/08/05 13:20:10;;;;;;;0.93;0.70;;;24.60;99.90;;;;;;6274662;28;20633;-63
2021/08/05 13:23:28;;;;;;;1.07;0.73;;;24.60;99.60;;;;;;6273841;28;20228;-67
2021/08/05 13:26:35;;;;;;;1.10;0.70;;;24.60;99.60;;;;;;6274484;28;20250;-64
2021/08/05 13:29:47;;;;;;;1.00;0.50;;;24.70;99.40;;;;;;6274200;28;20264;-62
2021/08/05 13:32:52;;;;;;;1.10;0.70;;;24.80;97.30;;;;;;6274234;28;20260;-62
2021/08/05 13:35:56;;;;;;;6.97;5.40;;;24.90;96.40;;;;;;6274021;28;20661;-62
2021/08/05 13:39:01;;;;;;;1.67;1.30;;;24.90;96.00;;;;;;6279691;28;20703;-62
2021/08/05 13:42:06;;;;;;;2.40;2.13;;;25.00;94.90;;;;;;6295793;28;20247;-61
2021/08/05 13:45:11;;;;;;;3.40;2.43;;;25.00;94.30;;;;;;6286003;28;20246;-62
2021/08/05 13:48:16;;;;;;;1.50;1.40;;;25.00;94.20;;;;;;6273531;28;20235;-61
2021/08/05 13:51:19;;;;;;;0.80;0.50;;;25.10;94.40;;;;;;6273752;28;20224;-61
2021/08/05 13:54:24;;;;;;;2.00;1.20;;;25.00;95.10;;;;;;6275676;28;20231;-62
2021/08/05 13:57:27;;;;;;;0.80;0.50;;;25.10;94.70;;;;;;6284005;28;20611;-62
2021/08/05 14:00:31;;;;;;;1.30;1.07;;;25.00;92.70;;;;;;6281904;28;20231;-63
2021/08/05 14:03:35;;;;;;;2.07;1.70;;;25.00;93.70;;;;;;6273521;28;20623;-67
2021/08/05 14:06:38;;;;;;;2.17;1.00;;;25.10;93.90;;;;;;6274693;28;20227;-69
2021/08/05 14:09:43;;;;;;;1.50;0.70;;;25.20;93.20;;;;;;6281974;28;20711;-64
2021/08/05 14:12:46;;;;;;;1.37;0.67;;;25.00;91.80;;;;;;6303322;28;20578;-65
2021/08/05 14:15:50;;;;;;;0.83;0.73;;;24.80;92.30;;;;;;6302946;28;20246;-65
2021/08/05 14:18:53;;;;;;;1.17;0.30;;;24.80;92.50;;;;;;6303386;28;20227;-66
2021/08/05 14:21:56;;;;;;;1.00;0.50;;;24.80;91.10;;;;;;6302449;28;20234;-64
2021/08/05 14:25:01;;;;;;;1.77;0.50;;;24.80;92.70;;;;;;6279068;28;20231;-64
2021/08/05 14:28:05;;;;;;;0.70;0.47;;;24.60;91.10;;;;;;6277786;28;20568;-66
2021/08/05 14:31:09;;;;;;;0.70;0.30;;;24.40;90.90;;;;;;6277710;28;20237;-64
2021/08/05 14:34:13;;;;;;;0.67;0.30;;;24.20;88.60;;;;;;6277621;28;20312;-66
2021/08/05 14:37:16;;;;;;;2.70;0.27;;;24.10;89.60;;;;;;6277732;28;20211;-67
2021/08/05 14:40:20;;;;;;;0.73;0.40;;;24.20;90.60;;;;;;6265372;28;20204;-65
2021/08/05 14:43:24;;;;;;;1.63;0.60;;;24.20;89.70;;;;;;6252694;28;20247;-66
2021/08/05 14:46:31;;;;;;;0.60;0.40;;;24.10;89.20;;;;;;6302059;28;20227;-62
2021/08/05 14:49:35;;;;;;;0.60;0.33;;;24.00;87.70;;;;;;6302029;28;20222;-61
2021/08/05 14:52:38;;;;;;;0.97;0.30;;;23.70;88.50;;;;;;6293052;28;20234;-62
2021/08/05 14:55:42;;;;;;;0.60;0.30;;;23.70;88.80;;;;;;6271317;28;20257;-62
2021/08/05 14:58:46;;;;;;;1.37;0.40;;;23.70;88.80;;;;;;6277339;28;20565;-62
2021/08/05 15:01:49;;;;;;;0.77;0.37;;;23.60;88.50;;;;;;6275523;28;20231;-62
2021/08/05 15:04:52;;;;;;;0.63;0.37;;;23.60;88.40;;;;;;6277280;28;20235;-62
2021/08/05 15:07:55;;;;;;;1.23;0.40;;;23.80;89.20;;;;;;6276712;28;20693;-62
2021/08/05 15:11:01;;;;;;;0.70;0.50;;;23.90;86.70;;;;;;6269611;28;20224;-61
2021/08/05 15:14:05;;;;;;;1.43;0.40;;;24.00;88.40;;;;;;6252026;28;20251;-63
2021/08/05 15:17:08;;;;;;;0.97;0.30;;;24.10;87.30;;;;;;6252035;28;20232;-62
2021/08/05 15:20:13;;;;;;;0.70;0.40;;;24.10;87.00;;;;;;6279804;28;20747;-63
2021/08/05 15:23:16;;;;;;;0.60;0.20;;;24.10;87.00;;;;;;6289762;28;20238;-63
2021/08/05 15:26:21;;;;;;;0.50;0.30;;;23.90;86.10;;;;;;6274510;28;20261;-67
2021/08/05 15:29:26;;;;;;;0.73;0.30;;;24.00;87.30;;;;;;6274464;28;20271;-62
2021/08/05 15:32:29;;;;;;;0.60;0.30;;;24.00;87.30;;;;;;6274445;28;20231;-62
2021/08/05 15:35:32;;;;;;;0.63;0.20;;;23.90;88.80;;;;;;6275038;28;20227;-62
2021/08/05 15:38:35;;;;;;;0.80;0.40;;;24.00;87.70;;;;;;6276446;28;20305;-62
2021/08/05 15:41:41;;;;;;;3.00;1.00;;;24.00;88.30;;;;;;6276736;28;20228;-66
2021/08/05 15:44:44;;;;;;;4.63;0.70;;;24.10;87.90;;;;;;6271418;28;20580;-62
2021/08/05 15:47:47;;;;;;;5.67;1.00;;;24.20;88.40;;;;;;6285212;28;20230;-65
2021/08/05 15:50:51;;;;;;;0.97;0.50;;;24.30;87.70;;;;;;6274519;28;20223;-62
2021/08/05 15:53:54;;;;;;;1.30;0.50;;;24.30;87.10;;;;;;6273163;28;20227;-63
2021/08/05 15:56:59;;;;;;;0.70;0.33;;;24.30;87.20;;;;;;6273183;28;20227;-63
2021/08/05 16:00:04;;;;;;;0.70;0.30;;;24.40;85.40;;;;;;6273311;28;20930;-63
2021/08/05 16:03:07;;;;;;;0.60;0.33;;;24.50;82.90;;;;;;6273442;28;20669;-62
2021/08/05 16:06:11;;;;;;;0.50;0.30;;;24.50;84.90;;;;;;6274250;28;20273;-63